sensor_id;sensor_type;location;lat;lon;timestamp;P1;durP1;ratioP1;P2;durP2;ratioP2
14292;SDS011;62290;59.420;17.842;2022-07-21T00:01:58;6.38;;;3.70;;
14292;SDS011;62290;59.420;17.842;2022-07-21T00:04:26;6.82;;;4.47;;
14292;SDS011;62290;59.420;17.842;2022-07-21T00:06:56;6.60;;;4.00;;
14292;SDS011;62290;59.420;17.842;2022-07-21T00:09:24;5.90;;;3.95;;
14292;SDS011;62290;59.420;17.842;2022-07-21T00:11:52;7.63;;;3.90;;
14292;SDS011;62290;59.420;17.842;2022-07-21T00:14:20;7.20;;;4.22;;
14292;SDS011;62290;59.420;17.842;2022-07-21T00:16:48;4.82;;;3.83;;
14292;SDS011;62290;59.420;17.842;2022-07-21T00:19:16;5.88;;;3.72;;
14292;SDS011;62290;59.420;17.842;2022-07-21T00:21:44;6.03;;;3.90;;
14292;SDS011;62290;59.420;17.842;2022-07-21T00:24:14;5.00;;;3.65;;
14292;SDS011;62290;59.420;17.842;2022-07-21T00:26:42;6.35;;;3.97;;
14292;SDS011;62290;59.420;17.842;2022-07-21T00:29:10;8.25;;;4.25;;
14292;SDS011;62290;59.420;17.842;2022-07-21T00:31:38;7.88;;;4.10;;
14292;SDS011;62290;59.420;17.842;2022-07-21T00:34:06;4.80;;;3.67;;
14292;SDS011;62290;59.420;17.842;2022-07-21T00:36:34;5.05;;;3.80;;
14292;SDS011;62290;59.420;17.842;2022-07-21T00:39:02;8.20;;;3.92;;
14292;SDS011;62290;59.420;17.842;2022-07-21T00:41:32;4.10;;;3.63;;
14292;SDS011;62290;59.420;17.842;2022-07-21T00:44:00;6.10;;;4.32;;
14292;SDS011;62290;59.420;17.842;2022-07-21T00:46:28;4.90;;;3.92;;
14292;SDS011;62290;59.420;17.842;2022-07-21T00:48:57;5.93;;;4.20;;
14292;SDS011;62290;59.420;17.842;2022-07-21T00:51:25;4.88;;;3.60;;
14292;SDS011;62290;59.420;17.842;2022-07-21T00:53:53;6.03;;;4.20;;
14292;SDS011;62290;59.420;17.842;2022-07-21T00:56:21;5.82;;;3.95;;
14292;SDS011;62290;59.420;17.842;2022-07-21T00:58:51;6.50;;;3.97;;
14292;SDS011;62290;59.420;17.842;2022-07-21T01:01:19;4.45;;;3.80;;
14292;SDS011;62290;59.420;17.842;2022-07-21T01:03:48;6.80;;;3.83;;
14292;SDS011;62290;59.420;17.842;2022-07-21T01:06:16;4.82;;;3.65;;
14292;SDS011;62290;59.420;17.842;2022-07-21T01:08:44;6.07;;;4.28;;
14292;SDS011;62290;59.420;17.842;2022-07-21T01:11:12;4.13;;;3.13;;
14292;SDS011;62290;59.420;17.842;2022-07-21T01:13:40;5.80;;;4.30;;
14292;SDS011;62290;59.420;17.842;2022-07-21T01:16:11;5.97;;;3.90;;
14292;SDS011;62290;59.420;17.842;2022-07-21T01:18:39;8.07;;;3.80;;
14292;SDS011;62290;59.420;17.842;2022-07-21T01:21:26;7.00;;;3.88;;
14292;SDS011;62290;59.420;17.842;2022-07-21T01:23:56;6.68;;;3.40;;
14292;SDS011;62290;59.420;17.842;2022-07-21T01:26:25;4.70;;;3.83;;
14292;SDS011;62290;59.420;17.842;2022-07-21T01:28:54;6.50;;;4.30;;
14292;SDS011;62290;59.420;17.842;2022-07-21T01:31:23;5.38;;;3.47;;
14292;SDS011;62290;59.420;17.842;2022-07-21T01:33:51;6.35;;;4.13;;
14292;SDS011;62290;59.420;17.842;2022-07-21T01:36:19;5.05;;;3.50;;
14292;SDS011;62290;59.420;17.842;2022-07-21T01:38:48;5.53;;;3.80;;
14292;SDS011;62290;59.420;17.842;2022-07-21T01:41:34;5.07;;;4.00;;
14292;SDS011;62290;59.420;17.842;2022-07-21T01:44:03;6.80;;;3.55;;
14292;SDS011;62290;59.420;17.842;2022-07-21T01:46:33;6.78;;;3.83;;
14292;SDS011;62290;59.420;17.842;2022-07-21T01:49:02;4.82;;;3.60;;
14292;SDS011;62290;59.420;17.842;2022-07-21T01:51:31;4.55;;;3.88;;
14292;SDS011;62290;59.420;17.842;2022-07-21T01:54:00;4.07;;;3.60;;
14292;SDS011;62290;59.420;17.842;2022-07-21T01:56:28;5.15;;;3.70;;
14292;SDS011;62290;59.420;17.842;2022-07-21T01:58:56;5.07;;;3.85;;
14292;SDS011;62290;59.420;17.842;2022-07-21T02:01:25;5.38;;;3.70;;
14292;SDS011;62290;59.420;17.842;2022-07-21T02:03:55;4.97;;;3.92;;
14292;SDS011;62290;59.420;17.842;2022-07-21T02:06:25;4.47;;;3.72;;
14292;SDS011;62290;59.420;17.842;2022-07-21T02:08:54;7.30;;;3.53;;
14292;SDS011;62290;59.420;17.842;2022-07-21T02:11:24;6.20;;;4.22;;
14292;SDS011;62290;59.420;17.842;2022-07-21T02:13:52;5.53;;;3.65;;
14292;SDS011;62290;59.420;17.842;2022-07-21T02:16:20;6.60;;;3.65;;
14292;SDS011;62290;59.420;17.842;2022-07-21T02:18:48;5.03;;;4.00;;
14292;SDS011;62290;59.420;17.842;2022-07-21T02:21:17;4.15;;;3.65;;
14292;SDS011;62290;59.420;17.842;2022-07-21T02:23:45;5.45;;;4.00;;
14292;SDS011;62290;59.420;17.842;2022-07-21T02:26:13;5.68;;;3.63;;
14292;SDS011;62290;59.420;17.842;2022-07-21T02:28:43;6.00;;;3.92;;
14292;SDS011;62290;59.420;17.842;2022-07-21T02:31:11;4.72;;;3.90;;
14292;SDS011;62290;59.420;17.842;2022-07-21T02:33:39;4.28;;;3.88;;
14292;SDS011;62290;59.420;17.842;2022-07-21T02:36:08;4.22;;;3.55;;
14292;SDS011;62290;59.420;17.842;2022-07-21T02:38:36;8.23;;;4.25;;
14292;SDS011;62290;59.420;17.842;2022-07-21T02:41:05;8.77;;;3.80;;
14292;SDS011;62290;59.420;17.842;2022-07-21T02:43:33;5.53;;;3.88;;
14292;SDS011;62290;59.420;17.842;2022-07-21T02:46:02;4.75;;;4.25;;
14292;SDS011;62290;59.420;17.842;2022-07-21T02:48:30;6.40;;;3.90;;
14292;SDS011;62290;59.420;17.842;2022-07-21T02:50:58;4.03;;;3.28;;
14292;SDS011;62290;59.420;17.842;2022-07-21T02:53:26;5.82;;;3.83;;
14292;SDS011;62290;59.420;17.842;2022-07-21T02:55:54;5.00;;;3.70;;
14292;SDS011;62290;59.420;17.842;2022-07-21T02:58:23;7.30;;;3.70;;
14292;SDS011;62290;59.420;17.842;2022-07-21T03:00:52;6.53;;;4.10;;
14292;SDS011;62290;59.420;17.842;2022-07-21T03:03:23;4.82;;;3.60;;
14292;SDS011;62290;59.420;17.842;2022-07-21T03:05:53;4.97;;;3.65;;
14292;SDS011;62290;59.420;17.842;2022-07-21T03:08:22;5.70;;;3.58;;
14292;SDS011;62290;59.420;17.842;2022-07-21T03:10:51;5.32;;;4.05;;
14292;SDS011;62290;59.420;17.842;2022-07-21T03:13:19;4.63;;;3.58;;
14292;SDS011;62290;59.420;17.842;2022-07-21T03:15:48;5.72;;;3.38;;
14292;SDS011;62290;59.420;17.842;2022-07-21T03:18:16;5.00;;;3.95;;
14292;SDS011;62290;59.420;17.842;2022-07-21T03:20:46;8.10;;;3.90;;
14292;SDS011;62290;59.420;17.842;2022-07-21T03:23:14;3.80;;;3.35;;
14292;SDS011;62290;59.420;17.842;2022-07-21T03:25:43;5.45;;;3.55;;
14292;SDS011;62290;59.420;17.842;2022-07-21T03:28:11;4.72;;;3.97;;
14292;SDS011;62290;59.420;17.842;2022-07-21T03:30:39;4.85;;;3.42;;
14292;SDS011;62290;59.420;17.842;2022-07-21T03:33:07;5.43;;;4.15;;
14292;SDS011;62290;59.420;17.842;2022-07-21T03:35:35;5.53;;;3.88;;
14292;SDS011;62290;59.420;17.842;2022-07-21T03:38:05;5.18;;;3.70;;
14292;SDS011;62290;59.420;17.842;2022-07-21T03:40:34;5.20;;;4.00;;
14292;SDS011;62290;59.420;17.842;2022-07-21T03:43:04;5.25;;;3.58;;
14292;SDS011;62290;59.420;17.842;2022-07-21T03:45:33;5.30;;;3.60;;
14292;SDS011;62290;59.420;17.842;2022-07-21T03:48:03;5.72;;;3.75;;
14292;SDS011;62290;59.420;17.842;2022-07-21T03:50:32;4.63;;;3.83;;
14292;SDS011;62290;59.420;17.842;2022-07-21T03:53:01;6.65;;;4.22;;
14292;SDS011;62290;59.420;17.842;2022-07-21T03:55:31;6.13;;;3.45;;
14292;SDS011;62290;59.420;17.842;2022-07-21T03:58:00;3.75;;;3.15;;
14292;SDS011;62290;59.420;17.842;2022-07-21T04:00:31;6.13;;;3.50;;
14292;SDS011;62290;59.420;17.842;2022-07-21T04:03:00;6.40;;;3.60;;
14292;SDS011;62290;59.420;17.842;2022-07-21T04:05:29;5.32;;;3.55;;
14292;SDS011;62290;59.420;17.842;2022-07-21T04:07:57;4.05;;;3.65;;
14292;SDS011;62290;59.420;17.842;2022-07-21T04:10:26;8.00;;;4.07;;
14292;SDS011;62290;59.420;17.842;2022-07-21T04:12:58;6.28;;;3.63;;
14292;SDS011;62290;59.420;17.842;2022-07-21T04:15:28;5.90;;;4.20;;
14292;SDS011;62290;59.420;17.842;2022-07-21T04:17:57;7.75;;;4.70;;
14292;SDS011;62290;59.420;17.842;2022-07-21T04:20:25;5.57;;;3.55;;
14292;SDS011;62290;59.420;17.842;2022-07-21T04:22:54;4.75;;;3.55;;
14292;SDS011;62290;59.420;17.842;2022-07-21T04:25:22;5.53;;;3.72;;
14292;SDS011;62290;59.420;17.842;2022-07-21T04:27:50;4.38;;;3.50;;
14292;SDS011;62290;59.420;17.842;2022-07-21T04:30:21;5.00;;;3.70;;
14292;SDS011;62290;59.420;17.842;2022-07-21T04:32:50;4.78;;;3.75;;
14292;SDS011;62290;59.420;17.842;2022-07-21T04:35:18;3.88;;;3.40;;
14292;SDS011;62290;59.420;17.842;2022-07-21T04:37:47;5.95;;;3.80;;
14292;SDS011;62290;59.420;17.842;2022-07-21T04:40:15;5.43;;;3.70;;
14292;SDS011;62290;59.420;17.842;2022-07-21T04:42:44;6.38;;;3.80;;
14292;SDS011;62290;59.420;17.842;2022-07-21T04:45:13;5.05;;;3.75;;
14292;SDS011;62290;59.420;17.842;2022-07-21T04:47:45;4.35;;;3.40;;
14292;SDS011;62290;59.420;17.842;2022-07-21T04:50:15;7.07;;;3.40;;
14292;SDS011;62290;59.420;17.842;2022-07-21T04:52:44;6.40;;;3.67;;
14292;SDS011;62290;59.420;17.842;2022-07-21T04:55:12;4.28;;;3.67;;
14292;SDS011;62290;59.420;17.842;2022-07-21T04:57:41;5.05;;;3.33;;
14292;SDS011;62290;59.420;17.842;2022-07-21T05:00:12;4.68;;;3.63;;
14292;SDS011;62290;59.420;17.842;2022-07-21T05:02:42;4.97;;;3.88;;
14292;SDS011;62290;59.420;17.842;2022-07-21T05:05:12;5.75;;;4.13;;
14292;SDS011;62290;59.420;17.842;2022-07-21T05:07:40;4.10;;;3.70;;
14292;SDS011;62290;59.420;17.842;2022-07-21T05:10:10;5.43;;;3.30;;
14292;SDS011;62290;59.420;17.842;2022-07-21T05:12:40;4.50;;;3.38;;
14292;SDS011;62290;59.420;17.842;2022-07-21T05:15:08;11.05;;;4.55;;
14292;SDS011;62290;59.420;17.842;2022-07-21T05:17:37;4.05;;;3.47;;
14292;SDS011;62290;59.420;17.842;2022-07-21T05:20:08;5.43;;;3.95;;
14292;SDS011;62290;59.420;17.842;2022-07-21T05:22:37;5.55;;;3.85;;
14292;SDS011;62290;59.420;17.842;2022-07-21T05:25:06;5.18;;;3.75;;
14292;SDS011;62290;59.420;17.842;2022-07-21T05:27:35;5.65;;;3.83;;
14292;SDS011;62290;59.420;17.842;2022-07-21T05:30:03;4.97;;;3.40;;
14292;SDS011;62290;59.420;17.842;2022-07-21T05:32:32;4.40;;;3.38;;
14292;SDS011;62290;59.420;17.842;2022-07-21T05:35:00;4.85;;;3.40;;
14292;SDS011;62290;59.420;17.842;2022-07-21T05:37:36;6.22;;;4.13;;
14292;SDS011;62290;59.420;17.842;2022-07-21T05:40:04;3.90;;;3.50;;
14292;SDS011;62290;59.420;17.842;2022-07-21T05:42:34;4.55;;;3.30;;
14292;SDS011;62290;59.420;17.842;2022-07-21T05:45:03;4.82;;;3.58;;
14292;SDS011;62290;59.420;17.842;2022-07-21T05:47:31;4.63;;;3.67;;
14292;SDS011;62290;59.420;17.842;2022-07-21T05:50:00;5.65;;;3.85;;
14292;SDS011;62290;59.420;17.842;2022-07-21T05:52:28;4.35;;;3.55;;
14292;SDS011;62290;59.420;17.842;2022-07-21T05:54:57;6.32;;;3.47;;
14292;SDS011;62290;59.420;17.842;2022-07-21T05:57:25;5.20;;;3.58;;
14292;SDS011;62290;59.420;17.842;2022-07-21T05:59:54;3.47;;;3.17;;
14292;SDS011;62290;59.420;17.842;2022-07-21T06:02:22;4.50;;;3.50;;
14292;SDS011;62290;59.420;17.842;2022-07-21T06:04:50;4.97;;;3.97;;
14292;SDS011;62290;59.420;17.842;2022-07-21T06:07:18;4.22;;;3.70;;
14292;SDS011;62290;59.420;17.842;2022-07-21T06:09:46;5.40;;;3.33;;
14292;SDS011;62290;59.420;17.842;2022-07-21T06:12:16;4.85;;;3.78;;
14292;SDS011;62290;59.420;17.842;2022-07-21T06:14:44;5.28;;;3.63;;
14292;SDS011;62290;59.420;17.842;2022-07-21T06:17:12;4.82;;;3.90;;
14292;SDS011;62290;59.420;17.842;2022-07-21T06:19:40;6.65;;;3.78;;
14292;SDS011;62290;59.420;17.842;2022-07-21T06:22:08;5.35;;;4.00;;
14292;SDS011;62290;59.420;17.842;2022-07-21T06:24:36;4.07;;;3.40;;
14292;SDS011;62290;59.420;17.842;2022-07-21T06:27:04;4.40;;;4.00;;
14292;SDS011;62290;59.420;17.842;2022-07-21T06:29:34;4.10;;;3.28;;
14292;SDS011;62290;59.420;17.842;2022-07-21T06:32:02;5.88;;;4.03;;
14292;SDS011;62290;59.420;17.842;2022-07-21T06:34:30;5.07;;;4.35;;
14292;SDS011;62290;59.420;17.842;2022-07-21T06:36:58;4.18;;;3.65;;
14292;SDS011;62290;59.420;17.842;2022-07-21T06:39:26;5.85;;;4.43;;
14292;SDS011;62290;59.420;17.842;2022-07-21T06:41:54;4.15;;;3.60;;
14292;SDS011;62290;59.420;17.842;2022-07-21T06:44:26;4.30;;;3.58;;
14292;SDS011;62290;59.420;17.842;2022-07-21T06:46:56;5.63;;;3.63;;
14292;SDS011;62290;59.420;17.842;2022-07-21T06:49:24;4.05;;;3.47;;
14292;SDS011;62290;59.420;17.842;2022-07-21T06:51:52;5.75;;;4.13;;
14292;SDS011;62290;59.420;17.842;2022-07-21T06:54:20;5.43;;;3.95;;
14292;SDS011;62290;59.420;17.842;2022-07-21T06:56:48;4.43;;;4.03;;
14292;SDS011;62290;59.420;17.842;2022-07-21T06:59:16;5.40;;;4.45;;
14292;SDS011;62290;59.420;17.842;2022-07-21T07:01:44;4.38;;;3.97;;
14292;SDS011;62290;59.420;17.842;2022-07-21T07:04:14;5.22;;;4.72;;
14292;SDS011;62290;59.420;17.842;2022-07-21T07:06:42;5.15;;;4.15;;
14292;SDS011;62290;59.420;17.842;2022-07-21T07:09:10;5.07;;;4.20;;
14292;SDS011;62290;59.420;17.842;2022-07-21T07:11:38;6.00;;;4.03;;
14292;SDS011;62290;59.420;17.842;2022-07-21T07:14:26;4.35;;;3.83;;
14292;SDS011;62290;59.420;17.842;2022-07-21T07:16:54;5.72;;;4.13;;
14292;SDS011;62290;59.420;17.842;2022-07-21T07:19:24;5.15;;;4.10;;
14292;SDS011;62290;59.420;17.842;2022-07-21T07:21:53;6.13;;;4.40;;
14292;SDS011;62290;59.420;17.842;2022-07-21T07:24:21;4.80;;;4.05;;
14292;SDS011;62290;59.420;17.842;2022-07-21T07:26:49;5.60;;;4.50;;
14292;SDS011;62290;59.420;17.842;2022-07-21T07:29:17;5.07;;;4.18;;
14292;SDS011;62290;59.420;17.842;2022-07-21T07:31:45;5.63;;;4.35;;
14292;SDS011;62290;59.420;17.842;2022-07-21T07:34:13;5.88;;;4.65;;
14292;SDS011;62290;59.420;17.842;2022-07-21T07:36:43;5.05;;;4.28;;
14292;SDS011;62290;59.420;17.842;2022-07-21T07:39:11;6.10;;;4.15;;
14292;SDS011;62290;59.420;17.842;2022-07-21T07:41:42;5.03;;;4.18;;
14292;SDS011;62290;59.420;17.842;2022-07-21T07:44:11;6.25;;;4.53;;
14292;SDS011;62290;59.420;17.842;2022-07-21T07:46:39;5.80;;;4.63;;
14292;SDS011;62290;59.420;17.842;2022-07-21T07:49:07;4.85;;;4.35;;
14292;SDS011;62290;59.420;17.842;2022-07-21T07:51:45;5.05;;;4.55;;
14292;SDS011;62290;59.420;17.842;2022-07-21T07:54:15;6.78;;;4.82;;
14292;SDS011;62290;59.420;17.842;2022-07-21T07:56:43;4.95;;;4.28;;
14292;SDS011;62290;59.420;17.842;2022-07-21T07:59:11;7.65;;;4.55;;
14292;SDS011;62290;59.420;17.842;2022-07-21T08:01:39;6.28;;;4.15;;
14292;SDS011;62290;59.420;17.842;2022-07-21T08:04:07;5.13;;;4.63;;
14292;SDS011;62290;59.420;17.842;2022-07-21T08:06:35;8.88;;;4.93;;
14292;SDS011;62290;59.420;17.842;2022-07-21T08:09:05;5.18;;;3.28;;
14292;SDS011;62290;59.420;17.842;2022-07-21T08:11:34;10.82;;;3.80;;
14292;SDS011;62290;59.420;17.842;2022-07-21T08:14:02;8.13;;;3.33;;
14292;SDS011;62290;59.420;17.842;2022-07-21T08:16:31;6.93;;;3.88;;
14292;SDS011;62290;59.420;17.842;2022-07-21T08:18:59;5.25;;;3.75;;
14292;SDS011;62290;59.420;17.842;2022-07-21T08:21:28;12.70;;;4.00;;
14292;SDS011;62290;59.420;17.842;2022-07-21T08:24:18;5.70;;;3.05;;
14292;SDS011;62290;59.420;17.842;2022-07-21T08:26:46;9.30;;;3.80;;
14292;SDS011;62290;59.420;17.842;2022-07-21T08:29:15;13.32;;;3.88;;
14292;SDS011;62290;59.420;17.842;2022-07-21T08:31:43;8.10;;;3.50;;
14292;SDS011;62290;59.420;17.842;2022-07-21T08:34:12;10.20;;;4.38;;
14292;SDS011;62290;59.420;17.842;2022-07-21T08:36:40;13.25;;;4.50;;
14292;SDS011;62290;59.420;17.842;2022-07-21T08:39:08;8.23;;;3.85;;
14292;SDS011;62290;59.420;17.842;2022-07-21T08:41:38;8.90;;;3.88;;
14292;SDS011;62290;59.420;17.842;2022-07-21T08:44:07;4.93;;;3.92;;
14292;SDS011;62290;59.420;17.842;2022-07-21T08:46:37;12.43;;;4.07;;
14292;SDS011;62290;59.420;17.842;2022-07-21T08:49:08;8.57;;;3.97;;
14292;SDS011;62290;59.420;17.842;2022-07-21T08:51:38;6.68;;;3.60;;
14292;SDS011;62290;59.420;17.842;2022-07-21T08:54:06;26.48;;;12.70;;
14292;SDS011;62290;59.420;17.842;2022-07-21T08:56:34;32.25;;;18.77;;
14292;SDS011;62290;59.420;17.842;2022-07-21T08:59:03;63.33;;;34.13;;
14292;SDS011;62290;59.420;17.842;2022-07-21T09:01:31;84.95;;;43.05;;
14292;SDS011;62290;59.420;17.842;2022-07-21T09:06:52;110.35;;;61.20;;
14292;SDS011;62290;59.420;17.842;2022-07-21T09:09:22;99.60;;;55.78;;
14292;SDS011;62290;59.420;17.842;2022-07-21T09:11:50;90.35;;;50.63;;
14292;SDS011;62290;59.420;17.842;2022-07-21T09:14:21;102.35;;;53.33;;
14292;SDS011;62290;59.420;17.842;2022-07-21T09:16:52;85.10;;;46.58;;
14292;SDS011;62290;59.420;17.842;2022-07-21T09:19:21;90.70;;;46.60;;
14292;SDS011;62290;59.420;17.842;2022-07-21T09:21:51;83.97;;;44.72;;
14292;SDS011;62290;59.420;17.842;2022-07-21T09:24:22;71.57;;;39.05;;
14292;SDS011;62290;59.420;17.842;2022-07-21T09:26:56;63.53;;;36.63;;
14292;SDS011;62290;59.420;17.842;2022-07-21T09:29:35;62.25;;;34.17;;
14292;SDS011;62290;59.420;17.842;2022-07-21T09:32:17;57.92;;;33.45;;
14292;SDS011;62290;59.420;17.842;2022-07-21T09:34:50;55.45;;;31.80;;
14292;SDS011;62290;59.420;17.842;2022-07-21T09:37:19;50.10;;;29.38;;
14292;SDS011;62290;59.420;17.842;2022-07-21T09:39:49;45.83;;;29.85;;
14292;SDS011;62290;59.420;17.842;2022-07-21T09:42:20;48.35;;;27.88;;
14292;SDS011;62290;59.420;17.842;2022-07-21T09:44:53;39.60;;;24.33;;
14292;SDS011;62290;59.420;17.842;2022-07-21T09:47:23;39.53;;;24.73;;
14292;SDS011;62290;59.420;17.842;2022-07-21T09:49:53;43.90;;;24.33;;
14292;SDS011;62290;59.420;17.842;2022-07-21T09:52:43;41.00;;;21.67;;
14292;SDS011;62290;59.420;17.842;2022-07-21T09:55:12;40.80;;;21.48;;
14292;SDS011;62290;59.420;17.842;2022-07-21T09:57:42;32.88;;;19.75;;
14292;SDS011;62290;59.420;17.842;2022-07-21T10:00:13;35.33;;;19.17;;
14292;SDS011;62290;59.420;17.842;2022-07-21T10:02:46;37.08;;;19.50;;
14292;SDS011;62290;59.420;17.842;2022-07-21T10:05:15;37.42;;;17.73;;
14292;SDS011;62290;59.420;17.842;2022-07-21T10:07:46;27.75;;;17.02;;
14292;SDS011;62290;59.420;17.842;2022-07-21T10:10:16;29.90;;;16.60;;
14292;SDS011;62290;59.420;17.842;2022-07-21T10:12:46;27.52;;;15.95;;
14292;SDS011;62290;59.420;17.842;2022-07-21T10:15:17;27.48;;;15.25;;
14292;SDS011;62290;59.420;17.842;2022-07-21T10:17:46;23.67;;;13.60;;
14292;SDS011;62290;59.420;17.842;2022-07-21T10:20:21;23.60;;;14.48;;
14292;SDS011;62290;59.420;17.842;2022-07-21T10:22:56;19.50;;;12.77;;
14292;SDS011;62290;59.420;17.842;2022-07-21T10:25:29;23.92;;;13.30;;
14292;SDS011;62290;59.420;17.842;2022-07-21T10:28:14;19.58;;;12.02;;
14292;SDS011;62290;59.420;17.842;2022-07-21T10:30:47;21.73;;;12.40;;
14292;SDS011;62290;59.420;17.842;2022-07-21T10:33:18;18.80;;;12.23;;
14292;SDS011;62290;59.420;17.842;2022-07-21T10:35:48;20.17;;;12.40;;
14292;SDS011;62290;59.420;17.842;2022-07-21T10:38:25;16.10;;;10.80;;
14292;SDS011;62290;59.420;17.842;2022-07-21T10:40:55;13.95;;;10.35;;
14292;SDS011;62290;59.420;17.842;2022-07-21T10:43:38;14.18;;;10.02;;
14292;SDS011;62290;59.420;17.842;2022-07-21T10:49:03;17.92;;;9.63;;
14292;SDS011;62290;59.420;17.842;2022-07-21T10:51:35;14.02;;;9.43;;
14292;SDS011;62290;59.420;17.842;2022-07-21T10:54:21;13.77;;;9.02;;
14292;SDS011;62290;59.420;17.842;2022-07-21T11:02:56;11.52;;;8.00;;
14292;SDS011;62290;59.420;17.842;2022-07-21T11:05:26;16.85;;;8.00;;
14292;SDS011;62290;59.420;17.842;2022-07-21T11:08:08;9.82;;;7.30;;
14292;SDS011;62290;59.420;17.842;2022-07-21T11:10:37;12.07;;;7.70;;
14292;SDS011;62290;59.420;17.842;2022-07-21T11:13:06;10.43;;;7.53;;
14292;SDS011;62290;59.420;17.842;2022-07-21T11:18:31;10.45;;;6.57;;
14292;SDS011;62290;59.420;17.842;2022-07-21T11:21:01;10.15;;;7.28;;
14292;SDS011;62290;59.420;17.842;2022-07-21T11:23:42;7.60;;;6.75;;
14292;SDS011;62290;59.420;17.842;2022-07-21T11:26:12;8.00;;;6.40;;
14292;SDS011;62290;59.420;17.842;2022-07-21T11:28:42;7.80;;;6.13;;
14292;SDS011;62290;59.420;17.842;2022-07-21T11:31:12;9.18;;;6.38;;
14292;SDS011;62290;59.420;17.842;2022-07-21T11:33:44;9.90;;;6.60;;
14292;SDS011;62290;59.420;17.842;2022-07-21T11:36:23;6.85;;;5.97;;
14292;SDS011;62290;59.420;17.842;2022-07-21T11:39:03;9.45;;;6.13;;
14292;SDS011;62290;59.420;17.842;2022-07-21T11:41:33;7.82;;;5.97;;
14292;SDS011;62290;59.420;17.842;2022-07-21T11:44:02;6.75;;;5.47;;
14292;SDS011;62290;59.420;17.842;2022-07-21T11:49:19;7.65;;;4.82;;
14292;SDS011;62290;59.420;17.842;2022-07-21T11:51:49;6.88;;;5.32;;
14292;SDS011;62290;59.420;17.842;2022-07-21T11:54:25;6.60;;;5.50;;
14292;SDS011;62290;59.420;17.842;2022-07-21T11:56:55;8.50;;;5.55;;
14292;SDS011;62290;59.420;17.842;2022-07-21T11:59:24;8.35;;;5.38;;
14292;SDS011;62290;59.420;17.842;2022-07-21T12:01:55;5.53;;;4.97;;
14292;SDS011;62290;59.420;17.842;2022-07-21T12:07:15;8.88;;;5.22;;
14292;SDS011;62290;59.420;17.842;2022-07-21T12:09:47;7.32;;;5.07;;
14292;SDS011;62290;59.420;17.842;2022-07-21T12:12:27;11.05;;;4.70;;
14292;SDS011;62290;59.420;17.842;2022-07-21T12:15:10;10.77;;;4.50;;
14292;SDS011;62290;59.420;17.842;2022-07-21T12:17:40;12.75;;;4.70;;
14292;SDS011;62290;59.420;17.842;2022-07-21T12:20:12;7.35;;;4.07;;
14292;SDS011;62290;59.420;17.842;2022-07-21T12:22:42;9.23;;;4.95;;
14292;SDS011;62290;59.420;17.842;2022-07-21T12:25:14;9.15;;;4.70;;
14292;SDS011;62290;59.420;17.842;2022-07-21T12:27:43;7.30;;;4.60;;
14292;SDS011;62290;59.420;17.842;2022-07-21T12:30:29;8.85;;;4.72;;
14292;SDS011;62290;59.420;17.842;2022-07-21T12:33:03;8.90;;;4.70;;
14292;SDS011;62290;59.420;17.842;2022-07-21T12:35:35;10.32;;;4.70;;
14292;SDS011;62290;59.420;17.842;2022-07-21T12:38:05;7.57;;;5.22;;
14292;SDS011;62290;59.420;17.842;2022-07-21T12:40:35;7.93;;;4.70;;
14292;SDS011;62290;59.420;17.842;2022-07-21T12:43:20;7.03;;;4.55;;
14292;SDS011;62290;59.420;17.842;2022-07-21T12:45:53;6.55;;;4.10;;
14292;SDS011;62290;59.420;17.842;2022-07-21T12:48:23;7.25;;;3.95;;
14292;SDS011;62290;59.420;17.842;2022-07-21T12:50:58;6.80;;;4.30;;
14292;SDS011;62290;59.420;17.842;2022-07-21T12:53:28;11.35;;;4.25;;
14292;SDS011;62290;59.420;17.842;2022-07-21T12:55:58;10.38;;;4.35;;
14292;SDS011;62290;59.420;17.842;2022-07-21T12:58:26;8.88;;;4.50;;
14292;SDS011;62290;59.420;17.842;2022-07-21T13:00:54;15.05;;;4.90;;
14292;SDS011;62290;59.420;17.842;2022-07-21T13:03:23;10.60;;;4.70;;
14292;SDS011;62290;59.420;17.842;2022-07-21T13:05:58;14.70;;;5.07;;
14292;SDS011;62290;59.420;17.842;2022-07-21T13:08:28;12.80;;;5.05;;
14292;SDS011;62290;59.420;17.842;2022-07-21T13:10:56;18.35;;;4.93;;
14292;SDS011;62290;59.420;17.842;2022-07-21T13:13:24;17.88;;;4.60;;
14292;SDS011;62290;59.420;17.842;2022-07-21T13:15:53;10.77;;;3.85;;
14292;SDS011;62290;59.420;17.842;2022-07-21T13:18:22;10.18;;;4.25;;
14292;SDS011;62290;59.420;17.842;2022-07-21T13:20:51;13.60;;;4.15;;
14292;SDS011;62290;59.420;17.842;2022-07-21T13:23:21;13.05;;;4.60;;
14292;SDS011;62290;59.420;17.842;2022-07-21T13:25:49;13.00;;;4.32;;
14292;SDS011;62290;59.420;17.842;2022-07-21T13:28:30;9.45;;;4.07;;
14292;SDS011;62290;59.420;17.842;2022-07-21T13:31:02;6.43;;;3.67;;
14292;SDS011;62290;59.420;17.842;2022-07-21T13:33:31;9.88;;;3.78;;
14292;SDS011;62290;59.420;17.842;2022-07-21T13:36:00;9.95;;;4.22;;
14292;SDS011;62290;59.420;17.842;2022-07-21T13:38:30;6.55;;;3.08;;
14292;SDS011;62290;59.420;17.842;2022-07-21T13:40:57;9.15;;;3.03;;
14292;SDS011;62290;59.420;17.842;2022-07-21T13:43:46;5.95;;;3.25;;
14292;SDS011;62290;59.420;17.842;2022-07-21T13:46:14;5.95;;;3.10;;
14292;SDS011;62290;59.420;17.842;2022-07-21T13:48:42;4.38;;;3.00;;
14292;SDS011;62290;59.420;17.842;2022-07-21T13:51:11;8.20;;;3.13;;
14292;SDS011;62290;59.420;17.842;2022-07-21T13:53:41;9.57;;;3.13;;
14292;SDS011;62290;59.420;17.842;2022-07-21T13:56:11;7.07;;;2.58;;
14292;SDS011;62290;59.420;17.842;2022-07-21T13:58:39;7.22;;;2.92;;
14292;SDS011;62290;59.420;17.842;2022-07-21T14:01:09;8.63;;;3.25;;
14292;SDS011;62290;59.420;17.842;2022-07-21T14:03:38;5.82;;;2.72;;
14292;SDS011;62290;59.420;17.842;2022-07-21T14:06:08;5.65;;;2.25;;
14292;SDS011;62290;59.420;17.842;2022-07-21T14:08:36;5.53;;;2.90;;
14292;SDS011;62290;59.420;17.842;2022-07-21T14:11:06;7.57;;;2.88;;
14292;SDS011;62290;59.420;17.842;2022-07-21T14:13:34;5.15;;;2.83;;
14292;SDS011;62290;59.420;17.842;2022-07-21T14:16:03;6.63;;;2.80;;
14292;SDS011;62290;59.420;17.842;2022-07-21T14:18:31;6.60;;;2.90;;
14292;SDS011;62290;59.420;17.842;2022-07-21T14:20:59;6.07;;;3.08;;
14292;SDS011;62290;59.420;17.842;2022-07-21T14:23:29;3.58;;;2.28;;
14292;SDS011;62290;59.420;17.842;2022-07-21T14:25:58;3.17;;;2.22;;
14292;SDS011;62290;59.420;17.842;2022-07-21T14:28:26;5.63;;;3.13;;
14292;SDS011;62290;59.420;17.842;2022-07-21T14:30:55;4.53;;;2.67;;
14292;SDS011;62290;59.420;17.842;2022-07-21T14:33:26;5.13;;;2.42;;
14292;SDS011;62290;59.420;17.842;2022-07-21T14:35:55;5.28;;;2.78;;
14292;SDS011;62290;59.420;17.842;2022-07-21T14:38:23;3.17;;;2.40;;
14292;SDS011;62290;59.420;17.842;2022-07-21T14:40:52;4.53;;;2.60;;
14292;SDS011;62290;59.420;17.842;2022-07-21T14:43:20;5.72;;;2.78;;
14292;SDS011;62290;59.420;17.842;2022-07-21T14:45:49;3.10;;;2.55;;
14292;SDS011;62290;59.420;17.842;2022-07-21T14:48:17;2.80;;;2.50;;
14292;SDS011;62290;59.420;17.842;2022-07-21T14:50:49;4.13;;;2.53;;
14292;SDS011;62290;59.420;17.842;2022-07-21T14:53:17;3.15;;;2.38;;
14292;SDS011;62290;59.420;17.842;2022-07-21T14:55:45;5.38;;;2.85;;
14292;SDS011;62290;59.420;17.842;2022-07-21T14:58:13;4.75;;;2.28;;
14292;SDS011;62290;59.420;17.842;2022-07-21T15:00:41;4.05;;;2.40;;
14292;SDS011;62290;59.420;17.842;2022-07-21T15:03:11;3.97;;;2.97;;
14292;SDS011;62290;59.420;17.842;2022-07-21T15:05:40;2.13;;;1.92;;
14292;SDS011;62290;59.420;17.842;2022-07-21T15:08:08;3.67;;;2.50;;